sensor_id;sensor_type;location;lat;lon;timestamp;temperature;humidity
13433;DHT22;6789;47.678;9.158;2023-11-21T00:03:07;8.80;99.90
13433;DHT22;6789;47.678;9.158;2023-11-21T00:07:59;8.80;99.90
13433;DHT22;6789;47.678;9.158;2023-11-21T00:12:51;8.90;99.90
13433;DHT22;6789;47.678;9.158;2023-11-21T00:17:46;8.90;99.90
13433;DHT22;6789;47.678;9.158;2023-11-21T00:22:38;8.90;99.90
13433;DHT22;6789;47.678;9.158;2023-11-21T00:27:31;8.90;99.90
13433;DHT22;6789;47.678;9.158;2023-11-21T00:32:23;8.90;99.90
13433;DHT22;6789;47.678;9.158;2023-11-21T00:37:15;8.90;99.90
13433;DHT22;6789;47.678;9.158;2023-11-21T00:42:07;8.90;99.90
13433;DHT22;6789;47.678;9.158;2023-11-21T00:47:00;8.80;99.90
13433;DHT22;6789;47.678;9.158;2023-11-21T00:51:52;8.80;99.90
13433;DHT22;6789;47.678;9.158;2023-11-21T00:56:43;8.80;99.90
13433;DHT22;6789;47.678;9.158;2023-11-21T01:01:35;8.80;99.90
13433;DHT22;6789;47.678;9.158;2023-11-21T01:06:27;8.80;99.90
13433;DHT22;6789;47.678;9.158;2023-11-21T01:11:19;8.90;99.90
13433;DHT22;6789;47.678;9.158;2023-11-21T01:16:11;9.00;99.90
13433;DHT22;6789;47.678;9.158;2023-11-21T01:21:03;9.00;99.90
13433;DHT22;6789;47.678;9.158;2023-11-21T01:25:56;9.00;99.90
13433;DHT22;6789;47.678;9.158;2023-11-21T01:30:49;8.90;99.90
13433;DHT22;6789;47.678;9.158;2023-11-21T01:35:41;8.90;99.90
13433;DHT22;6789;47.678;9.158;2023-11-21T01:40:34;8.90;99.90
13433;DHT22;6789;47.678;9.158;2023-11-21T01:45:26;8.80;99.90
13433;DHT22;6789;47.678;9.158;2023-11-21T01:50:18;8.80;99.90
13433;DHT22;6789;47.678;9.158;2023-11-21T01:55:10;8.80;99.90
13433;DHT22;6789;47.678;9.158;2023-11-21T02:00:09;8.80;99.90
13433;DHT22;6789;47.678;9.158;2023-11-21T02:05:07;8.80;99.90
13433;DHT22;6789;47.678;9.158;2023-11-21T02:10:00;8.80;99.90
13433;DHT22;6789;47.678;9.158;2023-11-21T02:14:52;8.70;99.90
13433;DHT22;6789;47.678;9.158;2023-11-21T02:19:44;8.70;99.90
13433;DHT22;6789;47.678;9.158;2023-11-21T02:24:36;8.70;99.90
13433;DHT22;6789;47.678;9.158;2023-11-21T02:29:28;8.70;99.90
13433;DHT22;6789;47.678;9.158;2023-11-21T02:34:20;8.70;99.90
13433;DHT22;6789;47.678;9.158;2023-11-21T02:39:13;8.70;99.90
13433;DHT22;6789;47.678;9.158;2023-11-21T02:44:06;8.80;99.90
13433;DHT22;6789;47.678;9.158;2023-11-21T02:48:58;8.80;99.90
13433;DHT22;6789;47.678;9.158;2023-11-21T02:53:50;8.80;99.90
13433;DHT22;6789;47.678;9.158;2023-11-21T02:58:43;8.70;99.90
13433;DHT22;6789;47.678;9.158;2023-11-21T03:03:36;8.80;99.90
13433;DHT22;6789;47.678;9.158;2023-11-21T03:08:30;8.70;99.90
13433;DHT22;6789;47.678;9.158;2023-11-21T03:13:22;8.60;99.90
13433;DHT22;6789;47.678;9.158;2023-11-21T03:18:14;8.40;99.90
13433;DHT22;6789;47.678;9.158;2023-11-21T03:23:05;8.30;99.90
13433;DHT22;6789;47.678;9.158;2023-11-21T03:27:57;8.30;99.90
13433;DHT22;6789;47.678;9.158;2023-11-21T03:32:49;8.30;99.90
13433;DHT22;6789;47.678;9.158;2023-11-21T03:37:41;8.30;99.90
13433;DHT22;6789;47.678;9.158;2023-11-21T03:42:34;8.30;99.90
13433;DHT22;6789;47.678;9.158;2023-11-21T03:47:28;8.20;99.90
13433;DHT22;6789;47.678;9.158;2023-11-21T03:52:20;8.30;99.90
13433;DHT22;6789;47.678;9.158;2023-11-21T03:57:12;8.30;99.90
13433;DHT22;6789;47.678;9.158;2023-11-21T04:02:04;8.20;99.90
13433;DHT22;6789;47.678;9.158;2023-11-21T04:06:56;8.20;99.90
13433;DHT22;6789;47.678;9.158;2023-11-21T04:11:48;8.20;99.90
13433;DHT22;6789;47.678;9.158;2023-11-21T04:16:40;8.30;99.90
13433;DHT22;6789;47.678;9.158;2023-11-21T04:21:32;8.20;99.90
13433;DHT22;6789;47.678;9.158;2023-11-21T04:26:24;8.30;99.90
13433;DHT22;6789;47.678;9.158;2023-11-21T04:31:16;8.30;99.90
13433;DHT22;6789;47.678;9.158;2023-11-21T04:36:08;8.30;99.90
13433;DHT22;6789;47.678;9.158;2023-11-21T04:41:00;8.20;99.90
13433;DHT22;6789;47.678;9.158;2023-11-21T04:45:55;8.20;99.90
13433;DHT22;6789;47.678;9.158;2023-11-21T04:50:47;8.10;99.90
13433;DHT22;6789;47.678;9.158;2023-11-21T04:55:38;8.00;99.90
13433;DHT22;6789;47.678;9.158;2023-11-21T05:00:31;7.90;99.90
13433;DHT22;6789;47.678;9.158;2023-11-21T05:05:36;7.90;99.90
13433;DHT22;6789;47.678;9.158;2023-11-21T05:10:28;7.90;99.90
13433;DHT22;6789;47.678;9.158;2023-11-21T05:15:21;8.00;99.90
13433;DHT22;6789;47.678;9.158;2023-11-21T05:20:14;8.00;99.90
13433;DHT22;6789;47.678;9.158;2023-11-21T05:25:10;8.00;99.90
13433;DHT22;6789;47.678;9.158;2023-11-21T05:30:04;8.10;99.90
13433;DHT22;6789;47.678;9.158;2023-11-21T05:34:57;8.10;99.90
13433;DHT22;6789;47.678;9.158;2023-11-21T05:39:49;8.20;99.90
13433;DHT22;6789;47.678;9.158;2023-11-21T05:44:41;8.20;99.90
13433;DHT22;6789;47.678;9.158;2023-11-21T05:49:34;8.10;99.90
13433;DHT22;6789;47.678;9.158;2023-11-21T05:54:26;8.20;99.90
13433;DHT22;6789;47.678;9.158;2023-11-21T05:59:18;8.30;99.90
13433;DHT22;6789;47.678;9.158;2023-11-21T06:04:14;8.30;99.90
13433;DHT22;6789;47.678;9.158;2023-11-21T06:09:06;8.30;99.90
13433;DHT22;6789;47.678;9.158;2023-11-21T06:14:00;8.40;99.90
13433;DHT22;6789;47.678;9.158;2023-11-21T06:18:52;8.40;99.90
13433;DHT22;6789;47.678;9.158;2023-11-21T06:23:44;8.30;99.90
13433;DHT22;6789;47.678;9.158;2023-11-21T06:28:35;8.30;99.90
13433;DHT22;6789;47.678;9.158;2023-11-21T06:33:41;8.30;99.90
13433;DHT22;6789;47.678;9.158;2023-11-21T06:38:34;8.30;99.90
13433;DHT22;6789;47.678;9.158;2023-11-21T06:43:26;8.30;99.90
13433;DHT22;6789;47.678;9.158;2023-11-21T06:48:18;8.30;99.90
13433;DHT22;6789;47.678;9.158;2023-11-21T06:53:10;8.30;99.90
13433;DHT22;6789;47.678;9.158;2023-11-21T06:58:02;8.40;99.90
13433;DHT22;6789;47.678;9.158;2023-11-21T07:02:54;8.30;99.90
13433;DHT22;6789;47.678;9.158;2023-11-21T07:07:47;8.40;99.90
13433;DHT22;6789;47.678;9.158;2023-11-21T07:12:40;8.40;99.90
13433;DHT22;6789;47.678;9.158;2023-11-21T07:17:32;8.50;99.90
13433;DHT22;6789;47.678;9.158;2023-11-21T07:22:24;8.60;99.90
13433;DHT22;6789;47.678;9.158;2023-11-21T07:27:16;8.70;99.90
13433;DHT22;6789;47.678;9.158;2023-11-21T07:32:08;8.70;99.90
13433;DHT22;6789;47.678;9.158;2023-11-21T07:37:04;8.70;99.90
13433;DHT22;6789;47.678;9.158;2023-11-21T07:41:56;8.70;99.90
13433;DHT22;6789;47.678;9.158;2023-11-21T07:46:49;8.60;99.90
13433;DHT22;6789;47.678;9.158;2023-11-21T07:51:43;8.70;99.90
13433;DHT22;6789;47.678;9.158;2023-11-21T07:56:35;8.60;99.90
13433;DHT22;6789;47.678;9.158;2023-11-21T08:01:27;8.60;99.90
13433;DHT22;6789;47.678;9.158;2023-11-21T08:06:19;8.70;99.90
13433;DHT22;6789;47.678;9.158;2023-11-21T08:11:11;8.80;99.90
13433;DHT22;6789;47.678;9.158;2023-11-21T08:16:04;8.90;99.90
13433;DHT22;6789;47.678;9.158;2023-11-21T08:21:03;9.10;99.90
13433;DHT22;6789;47.678;9.158;2023-11-21T08:26:31;9.30;99.90
13433;DHT22;6789;47.678;9.158;2023-11-21T08:32:04;9.40;99.90
13433;DHT22;6789;47.678;9.158;2023-11-21T08:36:57;9.50;99.90
13433;DHT22;6789;47.678;9.158;2023-11-21T08:41:48;9.50;99.90
13433;DHT22;6789;47.678;9.158;2023-11-21T08:46:40;9.40;99.90
13433;DHT22;6789;47.678;9.158;2023-11-21T08:51:34;9.40;99.90
13433;DHT22;6789;47.678;9.158;2023-11-21T08:56:28;9.50;99.90
13433;DHT22;6789;47.678;9.158;2023-11-21T09:01:19;9.50;99.90
13433;DHT22;6789;47.678;9.158;2023-11-21T09:06:12;9.60;99.90
13433;DHT22;6789;47.678;9.158;2023-11-21T09:11:05;9.50;99.90
13433;DHT22;6789;47.678;9.158;2023-11-21T09:15:59;9.50;99.90
13433;DHT22;6789;47.678;9.158;2023-11-21T09:20:51;9.60;99.90
13433;DHT22;6789;47.678;9.158;2023-11-21T09:25:43;9.80;99.90
13433;DHT22;6789;47.678;9.158;2023-11-21T09:30:37;9.70;99.90
13433;DHT22;6789;47.678;9.158;2023-11-21T09:35:29;9.80;99.90
13433;DHT22;6789;47.678;9.158;2023-11-21T09:40:22;9.90;99.90
13433;DHT22;6789;47.678;9.158;2023-11-21T09:45:28;10.00;99.90
13433;DHT22;6789;47.678;9.158;2023-11-21T09:50:26;10.10;99.90
13433;DHT22;6789;47.678;9.158;2023-11-21T09:55:18;10.10;99.90
13433;DHT22;6789;47.678;9.158;2023-11-21T10:00:16;10.20;99.90
13433;DHT22;6789;47.678;9.158;2023-11-21T10:05:12;10.30;99.90
13433;DHT22;6789;47.678;9.158;2023-11-21T10:10:07;10.30;99.90
13433;DHT22;6789;47.678;9.158;2023-11-21T10:15:56;10.30;99.90
13433;DHT22;6789;47.678;9.158;2023-11-21T10:20:49;10.40;99.90
13433;DHT22;6789;47.678;9.158;2023-11-21T10:25:45;10.40;99.90
13433;DHT22;6789;47.678;9.158;2023-11-21T10:30:38;10.60;99.90
13433;DHT22;6789;47.678;9.158;2023-11-21T10:35:47;10.90;99.90
13433;DHT22;6789;47.678;9.158;2023-11-21T10:40:45;11.00;99.90
13433;DHT22;6789;47.678;9.158;2023-11-21T10:45:39;11.10;99.90
13433;DHT22;6789;47.678;9.158;2023-11-21T10:50:33;11.40;99.90
13433;DHT22;6789;47.678;9.158;2023-11-21T10:55:26;11.60;99.90
13433;DHT22;6789;47.678;9.158;2023-11-21T11:00:18;11.70;99.90
13433;DHT22;6789;47.678;9.158;2023-11-21T11:05:15;11.80;99.90
13433;DHT22;6789;47.678;9.158;2023-11-21T11:10:15;11.90;99.90
13433;DHT22;6789;47.678;9.158;2023-11-21T11:15:08;11.70;99.90
13433;DHT22;6789;47.678;9.158;2023-11-21T11:20:03;11.50;99.90
13433;DHT22;6789;47.678;9.158;2023-11-21T11:31:11;11.20;99.90
13433;DHT22;6789;47.678;9.158;2023-11-21T11:36:17;11.00;99.90
13433;DHT22;6789;47.678;9.158;2023-11-21T11:41:35;10.80;99.90
13433;DHT22;6789;47.678;9.158;2023-11-21T11:46:52;10.60;99.90
13433;DHT22;6789;47.678;9.158;2023-11-21T11:57:34;10.30;99.90
13433;DHT22;6789;47.678;9.158;2023-11-21T12:03:42;10.10;99.90
13433;DHT22;6789;47.678;9.158;2023-11-21T12:08:36;10.00;99.90
13433;DHT22;6789;47.678;9.158;2023-11-21T12:14:27;10.00;99.90
13433;DHT22;6789;47.678;9.158;2023-11-21T12:25:27;10.10;99.90
13433;DHT22;6789;47.678;9.158;2023-11-21T12:30:28;10.20;99.90
13433;DHT22;6789;47.678;9.158;2023-11-21T12:35:24;10.10;99.90
13433;DHT22;6789;47.678;9.158;2023-11-21T12:40:18;10.20;99.90
13433;DHT22;6789;47.678;9.158;2023-11-21T12:50:08;10.40;99.90
13433;DHT22;6789;47.678;9.158;2023-11-21T12:55:07;10.60;99.90
13433;DHT22;6789;47.678;9.158;2023-11-21T13:00:01;10.70;99.90
13433;DHT22;6789;47.678;9.158;2023-11-21T13:06:06;10.90;99.90
13433;DHT22;6789;47.678;9.158;2023-11-21T13:10:59;11.00;99.90
13433;DHT22;6789;47.678;9.158;2023-11-21T13:15:53;11.30;99.90
13433;DHT22;6789;47.678;9.158;2023-11-21T13:20:50;11.50;99.90
13433;DHT22;6789;47.678;9.158;2023-11-21T13:25:43;11.70;99.90
13433;DHT22;6789;47.678;9.158;2023-11-21T13:30:44;11.90;99.90
13433;DHT22;6789;47.678;9.158;2023-11-21T13:35:38;11.80;99.90
13433;DHT22;6789;47.678;9.158;2023-11-21T13:40:33;11.70;99.90
13433;DHT22;6789;47.678;9.158;2023-11-21T13:45:31;11.50;99.90
13433;DHT22;6789;47.678;9.158;2023-11-21T13:50:24;11.50;99.90
13433;DHT22;6789;47.678;9.158;2023-11-21T13:55:23;11.30;99.90
13433;DHT22;6789;47.678;9.158;2023-11-21T14:00:16;11.20;99.90
13433;DHT22;6789;47.678;9.158;2023-11-21T14:05:34;11.10;99.90
13433;DHT22;6789;47.678;9.158;2023-11-21T14:10:26;11.00;99.90
13433;DHT22;6789;47.678;9.158;2023-11-21T14:15:18;10.80;99.90
13433;DHT22;6789;47.678;9.158;2023-11-21T14:20:10;10.70;99.90
13433;DHT22;6789;47.678;9.158;2023-11-21T14:25:09;10.20;99.90
13433;DHT22;6789;47.678;9.158;2023-11-21T14:30:03;9.90;99.90
13433;DHT22;6789;47.678;9.158;2023-11-21T14:34:56;9.80;99.90
13433;DHT22;6789;47.678;9.158;2023-11-21T14:39:48;9.70;99.90
13433;DHT22;6789;47.678;9.158;2023-11-21T14:44:41;9.70;99.90
13433;DHT22;6789;47.678;9.158;2023-11-21T14:49:34;9.70;99.90
13433;DHT22;6789;47.678;9.158;2023-11-21T14:54:41;9.80;99.90
13433;DHT22;6789;47.678;9.158;2023-11-21T14:59:49;9.80;99.90
13433;DHT22;6789;47.678;9.158;2023-11-21T15:04:49;9.90;99.90
13433;DHT22;6789;47.678;9.158;2023-11-21T15:09:44;9.90;99.90
13433;DHT22;6789;47.678;9.158;2023-11-21T15:14:36;9.90;99.90
13433;DHT22;6789;47.678;9.158;2023-11-21T15:19:28;9.90;99.90
13433;DHT22;6789;47.678;9.158;2023-11-21T15:24:23;9.70;99.90
13433;DHT22;6789;47.678;9.158;2023-11-21T15:29:16;9.70;99.90
13433;DHT22;6789;47.678;9.158;2023-11-21T15:34:08;9.80;99.90
13433;DHT22;6789;47.678;9.158;2023-11-21T15:39:00;9.80;99.90
13433;DHT22;6789;47.678;9.158;2023-11-21T15:43:52;9.70;99.90
13433;DHT22;6789;47.678;9.158;2023-11-21T15:48:43;9.60;99.90
13433;DHT22;6789;47.678;9.158;2023-11-21T15:53:42;9.60;99.90
13433;DHT22;6789;47.678;9.158;2023-11-21T15:58:34;9.50;99.90
13433;DHT22;6789;47.678;9.158;2023-11-21T16:03:26;9.60;99.90
13433;DHT22;6789;47.678;9.158;2023-11-21T16:08:18;9.60;99.90
13433;DHT22;6789;47.678;9.158;2023-11-21T16:13:10;9.70;99.90
13433;DHT22;6789;47.678;9.158;2023-11-21T16:18:01;9.60;99.90
13433;DHT22;6789;47.678;9.158;2023-11-21T16:22:54;9.60;99.90
13433;DHT22;6789;47.678;9.158;2023-11-21T16:27:45;9.60;99.90
13433;DHT22;6789;47.678;9.158;2023-11-21T16:32:37;9.30;99.90
13433;DHT22;6789;47.678;9.158;2023-11-21T16:37:29;9.00;99.90
13433;DHT22;6789;47.678;9.158;2023-11-21T16:42:22;8.90;99.90
13433;DHT22;6789;47.678;9.158;2023-11-21T16:47:13;8.90;99.90
13433;DHT22;6789;47.678;9.158;2023-11-21T16:52:06;8.80;99.90
13433;DHT22;6789;47.678;9.158;2023-11-21T16:57:00;8.80;99.90
13433;DHT22;6789;47.678;9.158;2023-11-21T17:01:52;8.80;99.90
13433;DHT22;6789;47.678;9.158;2023-11-21T17:06:45;8.70;99.90
13433;DHT22;6789;47.678;9.158;2023-11-21T17:11:37;8.70;99.90
13433;DHT22;6789;47.678;9.158;2023-11-21T17:16:29;8.70;99.90
13433;DHT22;6789;47.678;9.158;2023-11-21T17:21:21;8.70;99.90
13433;DHT22;6789;47.678;9.158;2023-11-21T17:26:23;8.70;99.90
13433;DHT22;6789;47.678;9.158;2023-11-21T17:31:15;8.60;99.90
13433;DHT22;6789;47.678;9.158;2023-11-21T17:36:09;8.70;99.90
13433;DHT22;6789;47.678;9.158;2023-11-21T17:41:03;8.60;99.90
13433;DHT22;6789;47.678;9.158;2023-11-21T17:45:56;8.50;99.90
13433;DHT22;6789;47.678;9.158;2023-11-21T17:50:48;8.40;99.90
13433;DHT22;6789;47.678;9.158;2023-11-21T17:55:39;8.30;99.90
13433;DHT22;6789;47.678;9.158;2023-11-21T18:00:31;8.20;99.90
13433;DHT22;6789;47.678;9.158;2023-11-21T18:05:25;8.30;99.90
13433;DHT22;6789;47.678;9.158;2023-11-21T18:10:17;8.30;99.90
13433;DHT22;6789;47.678;9.158;2023-11-21T18:15:09;8.30;99.90
13433;DHT22;6789;47.678;9.158;2023-11-21T18:20:01;8.30;99.90
13433;DHT22;6789;47.678;9.158;2023-11-21T18:24:54;8.20;99.90
13433;DHT22;6789;47.678;9.158;2023-11-21T18:29:48;8.30;99.90
13433;DHT22;6789;47.678;9.158;2023-11-21T18:34:41;8.30;99.90
13433;DHT22;6789;47.678;9.158;2023-11-21T18:39:34;8.40;99.90
13433;DHT22;6789;47.678;9.158;2023-11-21T18:44:26;8.30;99.90
13433;DHT22;6789;47.678;9.158;2023-11-21T18:49:18;8.30;99.90
13433;DHT22;6789;47.678;9.158;2023-11-21T18:54:10;8.30;99.90
13433;DHT22;6789;47.678;9.158;2023-11-21T18:59:02;8.40;99.90
13433;DHT22;6789;47.678;9.158;2023-11-21T19:03:56;8.40;99.90
13433;DHT22;6789;47.678;9.158;2023-11-21T19:08:53;8.40;99.90
13433;DHT22;6789;47.678;9.158;2023-11-21T19:13:45;8.40;99.90
13433;DHT22;6789;47.678;9.158;2023-11-21T19:18:37;8.50;99.90
13433;DHT22;6789;47.678;9.158;2023-11-21T19:23:29;8.60;99.90
13433;DHT22;6789;47.678;9.158;2023-11-21T19:28:21;8.60;99.90
13433;DHT22;6789;47.678;9.158;2023-11-21T19:33:13;8.60;99.90
13433;DHT22;6789;47.678;9.158;2023-11-21T19:38:05;8.70;99.90
13433;DHT22;6789;47.678;9.158;2023-11-21T19:42:57;8.70;99.90
13433;DHT22;6789;47.678;9.158;2023-11-21T19:47:49;8.60;99.90
13433;DHT22;6789;47.678;9.158;2023-11-21T19:52:40;8.50;99.90
13433;DHT22;6789;47.678;9.158;2023-11-21T19:57:32;8.50;99.90
13433;DHT22;6789;47.678;9.158;2023-11-21T20:02:24;8.60;99.90
13433;DHT22;6789;47.678;9.158;2023-11-21T20:07:17;8.60;99.90
13433;DHT22;6789;47.678;9.158;2023-11-21T20:12:12;8.50;99.90
13433;DHT22;6789;47.678;9.158;2023-11-21T20:17:04;8.50;99.90
13433;DHT22;6789;47.678;9.158;2023-11-21T20:21:56;8.50;99.90
13433;DHT22;6789;47.678;9.158;2023-11-21T20:26:48;8.50;99.90
13433;DHT22;6789;47.678;9.158;2023-11-21T20:31:40;8.40;99.90
13433;DHT22;6789;47.678;9.158;2023-11-21T20:36:33;8.30;99.90
13433;DHT22;6789;47.678;9.158;2023-11-21T20:41:25;8.40;99.90
13433;DHT22;6789;47.678;9.158;2023-11-21T20:46:19;8.30;99.90
13433;DHT22;6789;47.678;9.158;2023-11-21T20:51:12;8.30;99.90
13433;DHT22;6789;47.678;9.158;2023-11-21T20:56:04;8.20;99.90
13433;DHT22;6789;47.678;9.158;2023-11-21T21:00:56;8.10;99.90
13433;DHT22;6789;47.678;9.158;2023-11-21T21:05:48;8.10;99.90
13433;DHT22;6789;47.678;9.158;2023-11-21T21:10:39;8.00;99.90
13433;DHT22;6789;47.678;9.158;2023-11-21T21:15:32;8.10;99.90
13433;DHT22;6789;47.678;9.158;2023-11-21T21:20:24;8.10;99.90
13433;DHT22;6789;47.678;9.158;2023-11-21T21:25:16;8.00;99.90
13433;DHT22;6789;47.678;9.158;2023-11-21T21:30:08;8.10;99.90
13433;DHT22;6789;47.678;9.158;2023-11-21T21:35:01;8.10;99.90
13433;DHT22;6789;47.678;9.158;2023-11-21T21:39:56;8.10;99.90
13433;DHT22;6789;47.678;9.158;2023-11-21T21:44:49;8.10;99.90
13433;DHT22;6789;47.678;9.158;2023-11-21T21:49:41;8.10;99.90
13433;DHT22;6789;47.678;9.158;2023-11-21T21:54:33;8.10;99.90
13433;DHT22;6789;47.678;9.158;2023-11-21T21:59:25;8.20;99.90
13433;DHT22;6789;47.678;9.158;2023-11-21T22:04:17;8.20;99.90
13433;DHT22;6789;47.678;9.158;2023-11-21T22:09:10;8.20;99.90
13433;DHT22;6789;47.678;9.158;2023-11-21T22:14:03;8.20;99.90
13433;DHT22;6789;47.678;9.158;2023-11-21T22:18:55;8.20;99.90
13433;DHT22;6789;47.678;9.158;2023-11-21T22:23:47;8.20;99.90
13433;DHT22;6789;47.678;9.158;2023-11-21T22:28:39;8.20;99.90
13433;DHT22;6789;47.678;9.158;2023-11-21T22:33:30;8.10;99.90
13433;DHT22;6789;47.678;9.158;2023-11-21T22:38:22;8.00;99.90
13433;DHT22;6789;47.678;9.158;2023-11-21T22:43:14;8.00;99.90
13433;DHT22;6789;47.678;9.158;2023-11-21T22:48:08;8.10;99.90
13433;DHT22;6789;47.678;9.158;2023-11-21T22:53:00;8.00;99.90
13433;DHT22;6789;47.678;9.158;2023-11-21T22:57:52;8.00;99.90
13433;DHT22;6789;47.678;9.158;2023-11-21T23:13:13;7.90;99.90
13433;DHT22;6789;47.678;9.158;2023-11-21T23:18:10;7.90;99.90
13433;DHT22;6789;47.678;9.158;2023-11-21T23:23:02;7.90;99.90
13433;DHT22;6789;47.678;9.158;2023-11-21T23:27:54;7.90;99.90
13433;DHT22;6789;47.678;9.158;2023-11-21T23:32:46;8.00;99.90
13433;DHT22;6789;47.678;9.158;2023-11-21T23:37:38;7.90;99.90
13433;DHT22;6789;47.678;9.158;2023-11-21T23:42:30;7.90;99.90
13433;DHT22;6789;47.678;9.158;2023-11-21T23:47:21;7.80;99.90
13433;DHT22;6789;47.678;9.158;2023-11-21T23:52:13;7.80;99.90
13433;DHT22;6789;47.678;9.158;2023-11-21T23:57:06;7.80;99.90
